Alto, Michigan
Current Conditions -  °F | °C
As of 8:53 PM on Friday 24 Oct 2014 (Local Time) from KGRR Reporting Station
Haze Haze  
Wind Chill: 51°   Ceiling: Unl
Heat Index: 51°   Visibility: 6mi
Dew Point: 47°   Wind: 3mph
Humidity: 86%   Direction: 240°WSW
Pressure: 29.97"   Gusts: NA
Location:  42.86°N, 85.38°W
Report Text: KGRR 250053Z 24003KT 6SM BR CLR 11/08 A2997 RMK AO2 SLP151 T01060083
Loading
Personal Weather Stations






























Interactive Weather Map
Tropical Storm Tracking
New forecast layout! Learn more

10-Day Weather Forecast

Advertisements
Track Severe Weather on mobile